sensor_id;sensor_type;location;lat;lon;timestamp;P1;durP1;ratioP1;P2;durP2;ratioP2
7169;SDS011;3626;42.656;23.312;2024-01-16T00:00:02;21.55;;;11.40;;
7169;SDS011;3626;42.656;23.312;2024-01-16T00:00:09;21.88;;;11.30;;
7169;SDS011;3626;42.656;23.312;2024-01-16T00:00:15;22.37;;;11.27;;
7169;SDS011;3626;42.656;23.312;2024-01-16T00:00:21;22.52;;;11.27;;
7169;SDS011;3626;42.656;23.312;2024-01-16T00:00:27;22.95;;;11.45;;
7169;SDS011;3626;42.656;23.312;2024-01-16T00:00:32;22.52;;;11.25;;
7169;SDS011;3626;42.656;23.312;2024-01-16T00:00:38;21.67;;;10.93;;
7169;SDS011;3626;42.656;23.312;2024-01-16T00:00:43;22.30;;;10.80;;
7169;SDS011;3626;42.656;23.312;2024-01-16T00:00:49;22.08;;;10.73;;
7169;SDS011;3626;42.656;23.312;2024-01-16T00:00:55;21.77;;;10.67;;
7169;SDS011;3626;42.656;23.312;2024-01-16T00:01:00;21.15;;;10.52;;
7169;SDS011;3626;42.656;23.312;2024-01-16T00:01:06;20.83;;;10.57;;
7169;SDS011;3626;42.656;23.312;2024-01-16T00:01:11;20.48;;;10.50;;
7169;SDS011;3626;42.656;23.312;2024-01-16T00:01:19;20.40;;;10.53;;
7169;SDS011;3626;42.656;23.312;2024-01-16T00:01:25;20.15;;;10.52;;
7169;SDS011;3626;42.656;23.312;2024-01-16T00:01:30;19.85;;;10.52;;
7169;SDS011;3626;42.656;23.312;2024-01-16T00:01:36;20.10;;;10.70;;
7169;SDS011;3626;42.656;23.312;2024-01-16T00:01:42;20.10;;;10.80;;
7169;SDS011;3626;42.656;23.312;2024-01-16T00:01:47;20.30;;;10.77;;
7169;SDS011;3626;42.656;23.312;2024-01-16T00:01:53;20.77;;;10.70;;
7169;SDS011;3626;42.656;23.312;2024-01-16T00:01:59;21.02;;;10.70;;
7169;SDS011;3626;42.656;23.312;2024-01-16T00:02:05;20.93;;;10.70;;
7169;SDS011;3626;42.656;23.312;2024-01-16T00:02:13;20.23;;;10.70;;
7169;SDS011;3626;42.656;23.312;2024-01-16T00:02:18;19.63;;;10.60;;
7169;SDS011;3626;42.656;23.312;2024-01-16T00:02:24;19.60;;;10.50;;
7169;SDS011;3626;42.656;23.312;2024-01-16T00:02:29;21.20;;;10.83;;
7169;SDS011;3626;42.656;23.312;2024-01-16T00:02:35;21.63;;;10.85;;
7169;SDS011;3626;42.656;23.312;2024-01-16T00:02:41;21.37;;;11.00;;
7169;SDS011;3626;42.656;23.312;2024-01-16T00:02:46;20.70;;;10.80;;
7169;SDS011;3626;42.656;23.312;2024-01-16T00:02:52;20.23;;;10.95;;
7169;SDS011;3626;42.656;23.312;2024-01-16T00:02:57;20.57;;;11.27;;
7169;SDS011;3626;42.656;23.312;2024-01-16T00:03:03;21.00;;;11.55;;
7169;SDS011;3626;42.656;23.312;2024-01-16T00:03:09;22.05;;;11.70;;
7169;SDS011;3626;42.656;23.312;2024-01-16T00:03:15;22.95;;;11.93;;
7169;SDS011;3626;42.656;23.312;2024-01-16T00:03:21;22.67;;;11.93;;
7169;SDS011;3626;42.656;23.312;2024-01-16T00:03:27;21.70;;;11.67;;
7169;SDS011;3626;42.656;23.312;2024-01-16T00:03:32;21.85;;;11.60;;
7169;SDS011;3626;42.656;23.312;2024-01-16T00:03:38;22.02;;;11.55;;
7169;SDS011;3626;42.656;23.312;2024-01-16T00:03:43;22.90;;;11.77;;
7169;SDS011;3626;42.656;23.312;2024-01-16T00:03:50;23.42;;;11.96;;
7169;SDS011;3626;42.656;23.312;2024-01-16T00:03:56;23.33;;;11.90;;
7169;SDS011;3626;42.656;23.312;2024-01-16T00:04:01;22.83;;;11.67;;
7169;SDS011;3626;42.656;23.312;2024-01-16T00:04:07;22.20;;;11.40;;
7169;SDS011;3626;42.656;23.312;2024-01-16T00:04:13;22.33;;;11.40;;
7169;SDS011;3626;42.656;23.312;2024-01-16T00:04:18;22.67;;;11.43;;
7169;SDS011;3626;42.656;23.312;2024-01-16T00:04:24;23.17;;;11.50;;
7169;SDS011;3626;42.656;23.312;2024-01-16T00:04:31;21.80;;;11.50;;
7169;SDS011;3626;42.656;23.312;2024-01-16T00:04:37;21.90;;;11.65;;
7169;SDS011;3626;42.656;23.312;2024-01-16T00:04:43;21.73;;;11.45;;
7169;SDS011;3626;42.656;23.312;2024-01-16T00:04:49;21.13;;;11.30;;
7169;SDS011;3626;42.656;23.312;2024-01-16T00:04:54;20.73;;;11.30;;
7169;SDS011;3626;42.656;23.312;2024-01-16T00:05:00;20.88;;;11.30;;
7169;SDS011;3626;42.656;23.312;2024-01-16T00:05:06;21.60;;;11.25;;
7169;SDS011;3626;42.656;23.312;2024-01-16T00:05:12;20.70;;;11.05;;
7169;SDS011;3626;42.656;23.312;2024-01-16T00:05:17;20.17;;;10.80;;
7169;SDS011;3626;42.656;23.312;2024-01-16T00:05:23;19.88;;;10.65;;
7169;SDS011;3626;42.656;23.312;2024-01-16T00:05:28;20.77;;;10.80;;
7169;SDS011;3626;42.656;23.312;2024-01-16T00:05:34;20.57;;;10.53;;
7169;SDS011;3626;42.656;23.312;2024-01-16T00:05:40;19.83;;;10.38;;
7169;SDS011;3626;42.656;23.312;2024-01-16T00:05:45;20.00;;;10.53;;
7169;SDS011;3626;42.656;23.312;2024-01-16T00:05:51;20.00;;;10.25;;
7169;SDS011;3626;42.656;23.312;2024-01-16T00:05:57;20.08;;;9.90;;
7169;SDS011;3626;42.656;23.312;2024-01-16T00:06:04;20.30;;;10.07;;
7169;SDS011;3626;42.656;23.312;2024-01-16T00:06:09;21.08;;;10.25;;
7169;SDS011;3626;42.656;23.312;2024-01-16T00:06:15;22.30;;;10.53;;
7169;SDS011;3626;42.656;23.312;2024-01-16T00:06:21;23.13;;;10.80;;
7169;SDS011;3626;42.656;23.312;2024-01-16T00:06:26;22.33;;;10.75;;
7169;SDS011;3626;42.656;23.312;2024-01-16T00:06:32;22.17;;;10.80;;
7169;SDS011;3626;42.656;23.312;2024-01-16T00:06:38;22.63;;;10.80;;
7169;SDS011;3626;42.656;23.312;2024-01-16T00:06:44;22.68;;;10.76;;
7169;SDS011;3626;42.656;23.312;2024-01-16T00:06:50;22.50;;;10.90;;
7169;SDS011;3626;42.656;23.312;2024-01-16T00:06:55;21.90;;;10.90;;
7169;SDS011;3626;42.656;23.312;2024-01-16T00:07:01;21.10;;;10.83;;
7169;SDS011;3626;42.656;23.312;2024-01-16T00:07:06;21.17;;;10.95;;
7169;SDS011;3626;42.656;23.312;2024-01-16T00:07:12;20.13;;;10.80;;
7169;SDS011;3626;42.656;23.312;2024-01-16T00:07:18;19.10;;;10.70;;
7169;SDS011;3626;42.656;23.312;2024-01-16T00:07:23;19.10;;;10.50;;
7169;SDS011;3626;42.656;23.312;2024-01-16T00:07:29;19.63;;;10.47;;
7169;SDS011;3626;42.656;23.312;2024-01-16T00:07:36;19.52;;;10.35;;
7169;SDS011;3626;42.656;23.312;2024-01-16T00:07:44;19.19;;;10.30;;
7169;SDS011;3626;42.656;23.312;2024-01-16T00:07:50;19.70;;;10.37;;
7169;SDS011;3626;42.656;23.312;2024-01-16T00:07:56;21.13;;;10.70;;
7169;SDS011;3626;42.656;23.312;2024-01-16T00:08:05;20.81;;;10.59;;
7169;SDS011;3626;42.656;23.312;2024-01-16T00:08:10;20.45;;;10.20;;
7169;SDS011;3626;42.656;23.312;2024-01-16T00:08:16;20.85;;;10.23;;
7169;SDS011;3626;42.656;23.312;2024-01-16T00:08:21;20.93;;;10.27;;
7169;SDS011;3626;42.656;23.312;2024-01-16T00:08:27;20.33;;;10.15;;
7169;SDS011;3626;42.656;23.312;2024-01-16T00:08:33;20.40;;;10.23;;
7169;SDS011;3626;42.656;23.312;2024-01-16T00:08:38;20.45;;;10.30;;
7169;SDS011;3626;42.656;23.312;2024-01-16T00:08:44;20.73;;;10.30;;
7169;SDS011;3626;42.656;23.312;2024-01-16T00:08:50;20.25;;;10.02;;
7169;SDS011;3626;42.656;23.312;2024-01-16T00:08:55;19.20;;;9.73;;
7169;SDS011;3626;42.656;23.312;2024-01-16T00:09:01;19.35;;;9.75;;
7169;SDS011;3626;42.656;23.312;2024-01-16T00:09:07;19.10;;;9.80;;
7169;SDS011;3626;42.656;23.312;2024-01-16T00:09:12;18.83;;;9.70;;
7169;SDS011;3626;42.656;23.312;2024-01-16T00:09:18;19.05;;;9.75;;
7169;SDS011;3626;42.656;23.312;2024-01-16T00:09:24;19.33;;;9.80;;
7169;SDS011;3626;42.656;23.312;2024-01-16T00:09:32;19.17;;;9.90;;
7169;SDS011;3626;42.656;23.312;2024-01-16T00:09:39;19.19;;;9.89;;
7169;SDS011;3626;42.656;23.312;2024-01-16T00:09:44;19.20;;;9.77;;
7169;SDS011;3626;42.656;23.312;2024-01-16T00:09:50;18.98;;;9.70;;
7169;SDS011;3626;42.656;23.312;2024-01-16T00:09:59;18.81;;;9.83;;
7169;SDS011;3626;42.656;23.312;2024-01-16T00:10:06;18.57;;;9.67;;
7169;SDS011;3626;42.656;23.312;2024-01-16T00:10:12;18.87;;;9.83;;
7169;SDS011;3626;42.656;23.312;2024-01-16T00:10:18;18.55;;;9.73;;
7169;SDS011;3626;42.656;23.312;2024-01-16T00:10:24;18.45;;;9.70;;
7169;SDS011;3626;42.656;23.312;2024-01-16T00:10:29;18.90;;;9.60;;
7169;SDS011;3626;42.656;23.312;2024-01-16T00:10:35;19.95;;;9.60;;
7169;SDS011;3626;42.656;23.312;2024-01-16T00:10:41;19.98;;;9.90;;
7169;SDS011;3626;42.656;23.312;2024-01-16T00:10:46;20.10;;;10.00;;
7169;SDS011;3626;42.656;23.312;2024-01-16T00:10:53;20.85;;;10.23;;
7169;SDS011;3626;42.656;23.312;2024-01-16T00:10:59;20.90;;;10.20;;
7169;SDS011;3626;42.656;23.312;2024-01-16T00:11:07;22.38;;;10.70;;
7169;SDS011;3626;42.656;23.312;2024-01-16T00:11:12;22.60;;;10.60;;
7169;SDS011;3626;42.656;23.312;2024-01-16T00:11:19;22.87;;;10.67;;
7169;SDS011;3626;42.656;23.312;2024-01-16T00:11:24;23.48;;;10.98;;
7169;SDS011;3626;42.656;23.312;2024-01-16T00:11:30;23.67;;;11.07;;
7169;SDS011;3626;42.656;23.312;2024-01-16T00:11:39;23.08;;;10.90;;
7169;SDS011;3626;42.656;23.312;2024-01-16T00:11:45;23.43;;;10.71;;
7169;SDS011;3626;42.656;23.312;2024-01-16T00:11:50;24.25;;;10.55;;
7169;SDS011;3626;42.656;23.312;2024-01-16T00:11:56;24.73;;;10.70;;
7169;SDS011;3626;42.656;23.312;2024-01-16T00:12:02;23.55;;;10.30;;
7169;SDS011;3626;42.656;23.312;2024-01-16T00:12:09;23.10;;;10.10;;
7169;SDS011;3626;42.656;23.312;2024-01-16T00:12:14;23.15;;;10.15;;
7169;SDS011;3626;42.656;23.312;2024-01-16T00:12:20;22.90;;;9.97;;
7169;SDS011;3626;42.656;23.312;2024-01-16T00:12:26;22.55;;;9.80;;
7169;SDS011;3626;42.656;23.312;2024-01-16T00:12:31;21.63;;;9.80;;
7169;SDS011;3626;42.656;23.312;2024-01-16T00:12:37;21.00;;;9.80;;
7169;SDS011;3626;42.656;23.312;2024-01-16T00:12:45;20.27;;;9.73;;
7169;SDS011;3626;42.656;23.312;2024-01-16T00:12:50;18.63;;;9.60;;
7169;SDS011;3626;42.656;23.312;2024-01-16T00:12:56;18.60;;;9.63;;
7169;SDS011;3626;42.656;23.312;2024-01-16T00:13:03;19.00;;;9.84;;
7169;SDS011;3626;42.656;23.312;2024-01-16T00:13:09;19.52;;;9.95;;
7169;SDS011;3626;42.656;23.312;2024-01-16T00:13:14;19.60;;;9.90;;
7169;SDS011;3626;42.656;23.312;2024-01-16T00:13:20;20.67;;;10.13;;
7169;SDS011;3626;42.656;23.312;2024-01-16T00:13:25;20.83;;;10.10;;
7169;SDS011;3626;42.656;23.312;2024-01-16T00:13:31;21.20;;;10.25;;
7169;SDS011;3626;42.656;23.312;2024-01-16T00:13:37;21.20;;;10.20;;
7169;SDS011;3626;42.656;23.312;2024-01-16T00:13:43;21.37;;;10.23;;
7169;SDS011;3626;42.656;23.312;2024-01-16T00:13:48;21.65;;;10.45;;
7169;SDS011;3626;42.656;23.312;2024-01-16T00:13:54;21.80;;;10.70;;
7169;SDS011;3626;42.656;23.312;2024-01-16T00:14:00;21.97;;;10.70;;
7169;SDS011;3626;42.656;23.312;2024-01-16T00:14:05;21.92;;;10.60;;
7169;SDS011;3626;42.656;23.312;2024-01-16T00:14:11;21.80;;;10.63;;
7169;SDS011;3626;42.656;23.312;2024-01-16T00:14:16;20.87;;;10.77;;
7169;SDS011;3626;42.656;23.312;2024-01-16T00:14:22;20.10;;;10.70;;
7169;SDS011;3626;42.656;23.312;2024-01-16T00:14:28;19.80;;;10.53;;
7169;SDS011;3626;42.656;23.312;2024-01-16T00:14:35;19.67;;;10.57;;
7169;SDS011;3626;42.656;23.312;2024-01-16T00:14:42;20.09;;;10.67;;
7169;SDS011;3626;42.656;23.312;2024-01-16T00:14:48;20.33;;;10.40;;
7169;SDS011;3626;42.656;23.312;2024-01-16T00:14:54;20.60;;;10.40;;
7169;SDS011;3626;42.656;23.312;2024-01-16T00:14:59;20.25;;;10.40;;
7169;SDS011;3626;42.656;23.312;2024-01-16T00:15:05;19.98;;;10.48;;
7169;SDS011;3626;42.656;23.312;2024-01-16T00:15:11;19.33;;;10.37;;
7169;SDS011;3626;42.656;23.312;2024-01-16T00:15:17;19.25;;;10.35;;
7169;SDS011;3626;42.656;23.312;2024-01-16T00:15:22;19.67;;;10.50;;
7169;SDS011;3626;42.656;23.312;2024-01-16T00:15:28;20.48;;;10.77;;
7169;SDS011;3626;42.656;23.312;2024-01-16T00:15:34;20.08;;;10.48;;
7169;SDS011;3626;42.656;23.312;2024-01-16T00:15:40;20.20;;;10.43;;
7169;SDS011;3626;42.656;23.312;2024-01-16T00:15:46;20.33;;;10.73;;
7169;SDS011;3626;42.656;23.312;2024-01-16T00:15:52;19.80;;;10.73;;
7169;SDS011;3626;42.656;23.312;2024-01-16T00:15:57;19.53;;;10.50;;
7169;SDS011;3626;42.656;23.312;2024-01-16T00:16:03;19.30;;;10.40;;
7169;SDS011;3626;42.656;23.312;2024-01-16T00:16:09;19.75;;;10.57;;
7169;SDS011;3626;42.656;23.312;2024-01-16T00:16:15;19.95;;;10.45;;
7169;SDS011;3626;42.656;23.312;2024-01-16T00:16:21;19.63;;;10.25;;
7169;SDS011;3626;42.656;23.312;2024-01-16T00:16:26;18.50;;;9.97;;
7169;SDS011;3626;42.656;23.312;2024-01-16T00:16:33;18.53;;;9.90;;
7169;SDS011;3626;42.656;23.312;2024-01-16T00:16:41;18.35;;;9.93;;
7169;SDS011;3626;42.656;23.312;2024-01-16T00:16:47;18.30;;;9.90;;
7169;SDS011;3626;42.656;23.312;2024-01-16T00:16:53;18.25;;;9.90;;
7169;SDS011;3626;42.656;23.312;2024-01-16T00:16:59;18.60;;;10.00;;
7169;SDS011;3626;42.656;23.312;2024-01-16T00:17:05;18.85;;;10.00;;
7169;SDS011;3626;42.656;23.312;2024-01-16T00:17:10;18.53;;;9.83;;
7169;SDS011;3626;42.656;23.312;2024-01-16T00:17:16;18.38;;;9.90;;
7169;SDS011;3626;42.656;23.312;2024-01-16T00:17:22;18.55;;;10.00;;
7169;SDS011;3626;42.656;23.312;2024-01-16T00:17:27;18.55;;;10.00;;
7169;SDS011;3626;42.656;23.312;2024-01-16T00:17:33;18.20;;;10.00;;
7169;SDS011;3626;42.656;23.312;2024-01-16T00:17:39;18.38;;;10.07;;
7169;SDS011;3626;42.656;23.312;2024-01-16T00:17:44;18.10;;;10.00;;
7169;SDS011;3626;42.656;23.312;2024-01-16T00:17:50;17.98;;;9.90;;
7169;SDS011;3626;42.656;23.312;2024-01-16T00:17:56;18.00;;;9.90;;
7169;SDS011;3626;42.656;23.312;2024-01-16T00:18:02;19.27;;;9.93;;
7169;SDS011;3626;42.656;23.312;2024-01-16T00:18:07;19.15;;;10.02;;
7169;SDS011;3626;42.656;23.312;2024-01-16T00:18:13;19.57;;;10.17;;
7169;SDS011;3626;42.656;23.312;2024-01-16T00:18:19;19.33;;;10.13;;
7169;SDS011;3626;42.656;23.312;2024-01-16T00:18:25;19.50;;;10.07;;
7169;SDS011;3626;42.656;23.312;2024-01-16T00:18:31;19.77;;;10.20;;
7169;SDS011;3626;42.656;23.312;2024-01-16T00:18:37;19.30;;;10.10;;
7169;SDS011;3626;42.656;23.312;2024-01-16T00:18:42;18.80;;;9.95;;
7169;SDS011;3626;42.656;23.312;2024-01-16T00:18:48;18.70;;;9.90;;
7169;SDS011;3626;42.656;23.312;2024-01-16T00:18:53;18.75;;;9.80;;
7169;SDS011;3626;42.656;23.312;2024-01-16T00:18:59;17.33;;;9.80;;
7169;SDS011;3626;42.656;23.312;2024-01-16T00:19:05;16.88;;;9.68;;
7169;SDS011;3626;42.656;23.312;2024-01-16T00:19:11;16.36;;;9.48;;
7169;SDS011;3626;42.656;23.312;2024-01-16T00:19:17;16.17;;;9.40;;
7169;SDS011;3626;42.656;23.312;2024-01-16T00:19:23;16.48;;;9.48;;
7169;SDS011;3626;42.656;23.312;2024-01-16T00:19:28;16.92;;;9.63;;
7169;SDS011;3626;42.656;23.312;2024-01-16T00:19:34;17.40;;;9.77;;
7169;SDS011;3626;42.656;23.312;2024-01-16T00:19:40;17.67;;;10.07;;
7169;SDS011;3626;42.656;23.312;2024-01-16T00:19:46;18.33;;;10.38;;
7169;SDS011;3626;42.656;23.312;2024-01-16T00:19:52;18.17;;;10.40;;
7169;SDS011;3626;42.656;23.312;2024-01-16T00:19:57;18.52;;;10.50;;
7169;SDS011;3626;42.656;23.312;2024-01-16T00:20:06;18.77;;;10.75;;
7169;SDS011;3626;42.656;23.312;2024-01-16T00:20:12;19.52;;;11.07;;
7169;SDS011;3626;42.656;23.312;2024-01-16T00:20:17;20.55;;;11.27;;
7169;SDS011;3626;42.656;23.312;2024-01-16T00:20:23;20.65;;;11.40;;
7169;SDS011;3626;42.656;23.312;2024-01-16T00:20:30;21.56;;;11.50;;
7169;SDS011;3626;42.656;23.312;2024-01-16T00:20:36;21.70;;;11.45;;
7169;SDS011;3626;42.656;23.312;2024-01-16T00:20:42;21.77;;;11.30;;
7169;SDS011;3626;42.656;23.312;2024-01-16T00:20:47;22.08;;;11.43;;
7169;SDS011;3626;42.656;23.312;2024-01-16T00:20:53;22.85;;;11.73;;
7169;SDS011;3626;42.656;23.312;2024-01-16T00:21:00;23.30;;;11.73;;
7169;SDS011;3626;42.656;23.312;2024-01-16T00:21:05;24.28;;;11.96;;
7169;SDS011;3626;42.656;23.312;2024-01-16T00:21:11;24.83;;;12.25;;
7169;SDS011;3626;42.656;23.312;2024-01-16T00:21:17;24.27;;;12.20;;
7169;SDS011;3626;42.656;23.312;2024-01-16T00:21:22;24.45;;;12.20;;
7169;SDS011;3626;42.656;23.312;2024-01-16T00:21:28;23.83;;;12.27;;
7169;SDS011;3626;42.656;23.312;2024-01-16T00:21:37;24.27;;;12.40;;
7169;SDS011;3626;42.656;23.312;2024-01-16T00:21:44;24.94;;;12.50;;
7169;SDS011;3626;42.656;23.312;2024-01-16T00:21:52;25.27;;;12.51;;
7169;SDS011;3626;42.656;23.312;2024-01-16T00:21:57;25.27;;;12.47;;
7169;SDS011;3626;42.656;23.312;2024-01-16T00:22:03;25.40;;;12.65;;
7169;SDS011;3626;42.656;23.312;2024-01-16T00:22:09;24.80;;;12.40;;
7169;SDS011;3626;42.656;23.312;2024-01-16T00:22:15;24.55;;;12.30;;
7169;SDS011;3626;42.656;23.312;2024-01-16T00:22:21;25.25;;;12.50;;
7169;SDS011;3626;42.656;23.312;2024-01-16T00:22:26;25.30;;;12.40;;
7169;SDS011;3626;42.656;23.312;2024-01-16T00:22:32;25.48;;;12.50;;
7169;SDS011;3626;42.656;23.312;2024-01-16T00:22:38;25.25;;;12.57;;
7169;SDS011;3626;42.656;23.312;2024-01-16T00:22:43;25.60;;;12.50;;
7169;SDS011;3626;42.656;23.312;2024-01-16T00:22:49;24.98;;;12.43;;
7169;SDS011;3626;42.656;23.312;2024-01-16T00:22:54;23.50;;;12.30;;
7169;SDS011;3626;42.656;23.312;2024-01-16T00:23:01;23.63;;;12.17;;
7169;SDS011;3626;42.656;23.312;2024-01-16T00:23:07;23.48;;;12.20;;
7169;SDS011;3626;42.656;23.312;2024-01-16T00:23:12;23.77;;;12.30;;
7169;SDS011;3626;42.656;23.312;2024-01-16T00:23:18;23.58;;;12.30;;
7169;SDS011;3626;42.656;23.312;2024-01-16T00:23:23;22.52;;;12.15;;
7169;SDS011;3626;42.656;23.312;2024-01-16T00:23:30;22.33;;;12.00;;
7169;SDS011;3626;42.656;23.312;2024-01-16T00:23:37;22.16;;;11.94;;
7169;SDS011;3626;42.656;23.312;2024-01-16T00:23:43;21.77;;;11.93;;
7169;SDS011;3626;42.656;23.312;2024-01-16T00:23:48;21.90;;;11.80;;
7169;SDS011;3626;42.656;23.312;2024-01-16T00:23:55;22.94;;;12.14;;
7169;SDS011;3626;42.656;23.312;2024-01-16T00:24:00;23.25;;;12.25;;
7169;SDS011;3626;42.656;23.312;2024-01-16T00:24:06;23.67;;;12.27;;
7169;SDS011;3626;42.656;23.312;2024-01-16T00:24:12;23.20;;;12.00;;
7169;SDS011;3626;42.656;23.312;2024-01-16T00:24:18;23.17;;;11.80;;
7169;SDS011;3626;42.656;23.312;2024-01-16T00:24:23;23.10;;;11.67;;
7169;SDS011;3626;42.656;23.312;2024-01-16T00:24:29;22.77;;;11.70;;
7169;SDS011;3626;42.656;23.312;2024-01-16T00:24:34;22.27;;;11.63;;
7169;SDS011;3626;42.656;23.312;2024-01-16T00:24:40;21.97;;;11.43;;
7169;SDS011;3626;42.656;23.312;2024-01-16T00:24:46;22.05;;;11.32;;
7169;SDS011;3626;42.656;23.312;2024-01-16T00:24:51;21.80;;;11.18;;
7169;SDS011;3626;42.656;23.312;2024-01-16T00:24:57;21.40;;;10.83;;
7169;SDS011;3626;42.656;23.312;2024-01-16T00:25:03;21.00;;;10.50;;
7169;SDS011;3626;42.656;23.312;2024-01-16T00:25:09;20.10;;;10.30;;
7169;SDS011;3626;42.656;23.312;2024-01-16T00:25:15;20.38;;;10.38;;
7169;SDS011;3626;42.656;23.312;2024-01-16T00:25:20;20.30;;;10.50;;
7169;SDS011;3626;42.656;23.312;2024-01-16T00:25:26;20.77;;;10.50;;
7169;SDS011;3626;42.656;23.312;2024-01-16T00:25:32;20.85;;;10.50;;
7169;SDS011;3626;42.656;23.312;2024-01-16T00:25:37;21.35;;;10.45;;
7169;SDS011;3626;42.656;23.312;2024-01-16T00:25:43;21.07;;;10.50;;
7169;SDS011;3626;42.656;23.312;2024-01-16T00:25:48;20.67;;;10.30;;
7169;SDS011;3626;42.656;23.312;2024-01-16T00:25:55;19.98;;;10.18;;
7169;SDS011;3626;42.656;23.312;2024-01-16T00:26:01;19.40;;;10.10;;
7169;SDS011;3626;42.656;23.312;2024-01-16T00:26:07;19.67;;;10.43;;
7169;SDS011;3626;42.656;23.312;2024-01-16T00:26:19;19.67;;;10.50;;
7169;SDS011;3626;42.656;23.312;2024-01-16T00:26:25;19.38;;;10.41;;
7169;SDS011;3626;42.656;23.312;2024-01-16T00:26:32;19.30;;;10.35;;
7169;SDS011;3626;42.656;23.312;2024-01-16T00:26:37;18.98;;;10.40;;
7169;SDS011;3626;42.656;23.312;2024-01-16T00:26:43;19.10;;;10.53;;
7169;SDS011;3626;42.656;23.312;2024-01-16T00:26:48;20.05;;;10.75;;
7169;SDS011;3626;42.656;23.312;2024-01-16T00:26:55;20.66;;;10.96;;
7169;SDS011;3626;42.656;23.312;2024-01-16T00:27:01;21.20;;;11.10;;
7169;SDS011;3626;42.656;23.312;2024-01-16T00:27:06;21.10;;;10.88;;
7169;SDS011;3626;42.656;23.312;2024-01-16T00:27:12;20.73;;;10.63;;
7169;SDS011;3626;42.656;23.312;2024-01-16T00:27:17;20.77;;;10.50;;
7169;SDS011;3626;42.656;23.312;2024-01-16T00:27:23;21.02;;;10.70;;
7169;SDS011;3626;42.656;23.312;2024-01-16T00:27:29;20.63;;;10.60;;
7169;SDS011;3626;42.656;23.312;2024-01-16T00:27:34;20.77;;;10.75;;
7169;SDS011;3626;42.656;23.312;2024-01-16T00:27:40;21.20;;;10.98;;
7169;SDS011;3626;42.656;23.312;2024-01-16T00:27:45;20.97;;;10.83;;
7169;SDS011;3626;42.656;23.312;2024-01-16T00:27:51;20.52;;;10.63;;
7169;SDS011;3626;42.656;23.312;2024-01-16T00:27:57;20.30;;;10.50;;
7169;SDS011;3626;42.656;23.312;2024-01-16T00:28:03;19.87;;;10.50;;
7169;SDS011;3626;42.656;23.312;2024-01-16T00:28:10;19.93;;;10.63;;
7169;SDS011;3626;42.656;23.312;2024-01-16T00:28:15;20.40;;;10.88;;
7169;SDS011;3626;42.656;23.312;2024-01-16T00:28:24;20.13;;;10.70;;
7169;SDS011;3626;42.656;23.312;2024-01-16T00:28:30;20.50;;;10.53;;
7169;SDS011;3626;42.656;23.312;2024-01-16T00:28:36;19.66;;;10.00;;
7169;SDS011;3626;42.656;23.312;2024-01-16T00:28:43;18.80;;;9.60;;
7169;SDS011;3626;42.656;23.312;2024-01-16T00:28:49;18.73;;;9.70;;
7169;SDS011;3626;42.656;23.312;2024-01-16T00:28:54;19.30;;;9.80;;
7169;SDS011;3626;42.656;23.312;2024-01-16T00:29:00;19.65;;;9.88;;
7169;SDS011;3626;42.656;23.312;2024-01-16T00:29:06;19.80;;;9.82;;
7169;SDS011;3626;42.656;23.312;2024-01-16T00:29:11;20.03;;;9.80;;
7169;SDS011;3626;42.656;23.312;2024-01-16T00:29:17;20.05;;;9.80;;
7169;SDS011;3626;42.656;23.312;2024-01-16T00:29:23;20.00;;;9.82;;
7169;SDS011;3626;42.656;23.312;2024-01-16T00:29:28;19.60;;;9.85;;
7169;SDS011;3626;42.656;23.312;2024-01-16T00:29:35;20.30;;;10.10;;
7169;SDS011;3626;42.656;23.312;2024-01-16T00:29:41;20.75;;;10.30;;
7169;SDS011;3626;42.656;23.312;2024-01-16T00:29:46;21.33;;;10.47;;
7169;SDS011;3626;42.656;23.312;2024-01-16T00:29:52;20.90;;;10.48;;
7169;SDS011;3626;42.656;23.312;2024-01-16T00:29:58;20.43;;;10.27;;
7169;SDS011;3626;42.656;23.312;2024-01-16T00:30:05;20.70;;;10.20;;
7169;SDS011;3626;42.656;23.312;2024-01-16T00:30:12;20.80;;;10.10;;
7169;SDS011;3626;42.656;23.312;2024-01-16T00:30:18;20.40;;;10.00;;
7169;SDS011;3626;42.656;23.312;2024-01-16T00:30:23;20.73;;;10.13;;
7169;SDS011;3626;42.656;23.312;2024-01-16T00:30:29;20.50;;;10.07;;
7169;SDS011;3626;42.656;23.312;2024-01-16T00:30:35;20.08;;;9.95;;
7169;SDS011;3626;42.656;23.312;2024-01-16T00:30:40;19.77;;;9.90;;
7169;SDS011;3626;42.656;23.312;2024-01-16T00:30:46;19.13;;;9.80;;
7169;SDS011;3626;42.656;23.312;2024-01-16T00:30:52;19.17;;;9.88;;
7169;SDS011;3626;42.656;23.312;2024-01-16T00:30:57;19.33;;;10.10;;
7169;SDS011;3626;42.656;23.312;2024-01-16T00:31:06;19.20;;;10.30;;
7169;SDS011;3626;42.656;23.312;2024-01-16T00:31:13;18.41;;;10.30;;
7169;SDS011;3626;42.656;23.312;2024-01-16T00:31:18;18.05;;;10.15;;
7169;SDS011;3626;42.656;23.312;2024-01-16T00:31:24;17.57;;;9.97;;
7169;SDS011;3626;42.656;23.312;2024-01-16T00:31:30;17.52;;;10.10;;
7169;SDS011;3626;42.656;23.312;2024-01-16T00:31:35;17.65;;;10.15;;
7169;SDS011;3626;42.656;23.312;2024-01-16T00:31:41;17.80;;;10.17;;
7169;SDS011;3626;42.656;23.312;2024-01-16T00:31:48;18.43;;;10.07;;
7169;SDS011;3626;42.656;23.312;2024-01-16T00:31:54;18.35;;;10.02;;
7169;SDS011;3626;42.656;23.312;2024-01-16T00:32:00;18.40;;;10.00;;
7169;SDS011;3626;42.656;23.312;2024-01-16T00:32:05;18.25;;;9.93;;
7169;SDS011;3626;42.656;23.312;2024-01-16T00:32:11;18.77;;;10.03;;
7169;SDS011;3626;42.656;23.312;2024-01-16T00:32:20;18.85;;;10.18;;
7169;SDS011;3626;42.656;23.312;2024-01-16T00:32:27;19.10;;;10.40;;
7169;SDS011;3626;42.656;23.312;2024-01-16T00:32:32;19.92;;;10.40;;
7169;SDS011;3626;42.656;23.312;2024-01-16T00:32:38;19.90;;;10.30;;
7169;SDS011;3626;42.656;23.312;2024-01-16T00:32:44;20.90;;;10.40;;
7169;SDS011;3626;42.656;23.312;2024-01-16T00:32:50;20.93;;;10.37;;
7169;SDS011;3626;42.656;23.312;2024-01-16T00:32:55;21.33;;;10.15;;
7169;SDS011;3626;42.656;23.312;2024-01-16T00:33:01;21.43;;;10.00;;
7169;SDS011;3626;42.656;23.312;2024-01-16T00:33:08;21.98;;;10.02;;
7169;SDS011;3626;42.656;23.312;2024-01-16T00:33:15;22.14;;;10.10;;
7169;SDS011;3626;42.656;23.312;2024-01-16T00:33:21;22.84;;;10.18;;
7169;SDS011;3626;42.656;23.312;2024-01-16T00:33:27;22.58;;;10.15;;
7169;SDS011;3626;42.656;23.312;2024-01-16T00:33:33;22.10;;;10.17;;
7169;SDS011;3626;42.656;23.312;2024-01-16T00:33:38;22.13;;;10.20;;
7169;SDS011;3626;42.656;23.312;2024-01-16T00:33:44;21.10;;;10.15;;
7169;SDS011;3626;42.656;23.312;2024-01-16T00:33:50;20.60;;;10.02;;
7169;SDS011;3626;42.656;23.312;2024-01-16T00:33:56;20.37;;;10.10;;
7169;SDS011;3626;42.656;23.312;2024-01-16T00:34:01;19.73;;;9.95;;
7169;SDS011;3626;42.656;23.312;2024-01-16T00:34:07;18.95;;;9.80;;
7169;SDS011;3626;42.656;23.312;2024-01-16T00:34:12;18.57;;;9.80;;
7169;SDS011;3626;42.656;23.312;2024-01-16T00:34:18;18.40;;;9.75;;
7169;SDS011;3626;42.656;23.312;2024-01-16T00:34:24;18.23;;;9.68;;
7169;SDS011;3626;42.656;23.312;2024-01-16T00:34:30;18.55;;;9.63;;
7169;SDS011;3626;42.656;23.312;2024-01-16T00:34:35;17.77;;;9.40;;
7169;SDS011;3626;42.656;23.312;2024-01-16T00:34:41;18.13;;;9.52;;
7169;SDS011;3626;42.656;23.312;2024-01-16T00:34:47;18.55;;;9.77;;
7169;SDS011;3626;42.656;23.312;2024-01-16T00:34:53;18.53;;;9.87;;
7169;SDS011;3626;42.656;23.312;2024-01-16T00:34:59;18.92;;;10.10;;
7169;SDS011;3626;42.656;23.312;2024-01-16T00:35:05;18.80;;;10.10;;
7169;SDS011;3626;42.656;23.312;2024-01-16T00:35:10;19.25;;;10.10;;
7169;SDS011;3626;42.656;23.312;2024-01-16T00:35:16;19.90;;;10.13;;
7169;SDS011;3626;42.656;23.312;2024-01-16T00:35:22;19.98;;;10.15;;
7169;SDS011;3626;42.656;23.312;2024-01-16T00:35:28;20.30;;;10.15;;